sensor_id;sensor_type;location;lat;lon;timestamp;P1;durP1;ratioP1;P2;durP2;ratioP2
8871;SDS011;4472;52.092;9.820;2022-12-01T00:02:16;76.53;;;39.00;;
8871;SDS011;4472;52.092;9.820;2022-12-01T00:05:03;69.90;;;37.77;;
8871;SDS011;4472;52.092;9.820;2022-12-01T00:07:51;69.70;;;37.87;;
8871;SDS011;4472;52.092;9.820;2022-12-01T00:10:39;72.57;;;38.10;;
8871;SDS011;4472;52.092;9.820;2022-12-01T00:13:26;67.30;;;36.03;;
8871;SDS011;4472;52.092;9.820;2022-12-01T00:16:14;70.70;;;38.20;;
8871;SDS011;4472;52.092;9.820;2022-12-01T00:19:02;72.67;;;38.13;;
8871;SDS011;4472;52.092;9.820;2022-12-01T00:21:49;70.70;;;36.40;;
8871;SDS011;4472;52.092;9.820;2022-12-01T00:24:37;74.07;;;38.97;;
8871;SDS011;4472;52.092;9.820;2022-12-01T00:27:26;75.77;;;38.77;;
8871;SDS011;4472;52.092;9.820;2022-12-01T00:30:13;74.27;;;37.57;;
8871;SDS011;4472;52.092;9.820;2022-12-01T00:33:01;78.07;;;39.70;;
8871;SDS011;4472;52.092;9.820;2022-12-01T00:35:48;74.67;;;38.47;;
8871;SDS011;4472;52.092;9.820;2022-12-01T00:38:35;67.90;;;37.13;;
8871;SDS011;4472;52.092;9.820;2022-12-01T00:41:23;73.63;;;38.70;;
8871;SDS011;4472;52.092;9.820;2022-12-01T00:44:12;71.43;;;38.70;;
8871;SDS011;4472;52.092;9.820;2022-12-01T00:46:59;73.13;;;38.20;;
8871;SDS011;4472;52.092;9.820;2022-12-01T00:49:47;72.00;;;37.70;;
8871;SDS011;4472;52.092;9.820;2022-12-01T00:52:34;68.47;;;37.07;;
8871;SDS011;4472;52.092;9.820;2022-12-01T00:55:21;74.40;;;38.43;;
8871;SDS011;4472;52.092;9.820;2022-12-01T00:58:08;73.87;;;38.30;;
8871;SDS011;4472;52.092;9.820;2022-12-01T01:00:57;70.47;;;37.00;;
8871;SDS011;4472;52.092;9.820;2022-12-01T01:03:45;75.37;;;38.67;;
8871;SDS011;4472;52.092;9.820;2022-12-01T01:06:32;76.10;;;38.77;;
8871;SDS011;4472;52.092;9.820;2022-12-01T01:09:20;72.97;;;39.03;;
8871;SDS011;4472;52.092;9.820;2022-12-01T01:12:07;75.10;;;39.47;;
8871;SDS011;4472;52.092;9.820;2022-12-01T01:14:54;75.43;;;38.70;;
8871;SDS011;4472;52.092;9.820;2022-12-01T01:17:43;74.13;;;38.57;;
8871;SDS011;4472;52.092;9.820;2022-12-01T01:20:30;72.00;;;39.00;;
8871;SDS011;4472;52.092;9.820;2022-12-01T01:23:17;68.60;;;37.40;;
8871;SDS011;4472;52.092;9.820;2022-12-01T01:26:06;74.30;;;39.47;;
8871;SDS011;4472;52.092;9.820;2022-12-01T01:28:55;80.27;;;38.80;;
8871;SDS011;4472;52.092;9.820;2022-12-01T01:31:43;72.60;;;39.10;;
8871;SDS011;4472;52.092;9.820;2022-12-01T01:34:32;76.33;;;38.60;;
8871;SDS011;4472;52.092;9.820;2022-12-01T01:37:19;78.27;;;39.37;;
8871;SDS011;4472;52.092;9.820;2022-12-01T01:40:07;77.50;;;40.10;;
8871;SDS011;4472;52.092;9.820;2022-12-01T01:42:55;79.80;;;40.33;;
8871;SDS011;4472;52.092;9.820;2022-12-01T01:45:42;88.67;;;40.80;;
8871;SDS011;4472;52.092;9.820;2022-12-01T01:48:30;82.03;;;40.40;;
8871;SDS011;4472;52.092;9.820;2022-12-01T01:51:23;85.43;;;42.03;;
8871;SDS011;4472;52.092;9.820;2022-12-01T01:54:15;80.30;;;41.30;;
8871;SDS011;4472;52.092;9.820;2022-12-01T01:57:06;84.37;;;42.23;;
8871;SDS011;4472;52.092;9.820;2022-12-01T01:59:56;87.33;;;42.57;;
8871;SDS011;4472;52.092;9.820;2022-12-01T02:02:48;92.23;;;43.80;;
8871;SDS011;4472;52.092;9.820;2022-12-01T02:05:36;90.20;;;42.20;;
8871;SDS011;4472;52.092;9.820;2022-12-01T02:08:26;97.13;;;45.20;;
8871;SDS011;4472;52.092;9.820;2022-12-01T02:14:36;103.10;;;46.00;;
8871;SDS011;4472;52.092;9.820;2022-12-01T02:17:29;102.33;;;46.47;;
8871;SDS011;4472;52.092;9.820;2022-12-01T02:20:32;111.20;;;46.50;;
8871;SDS011;4472;52.092;9.820;2022-12-01T02:23:40;103.87;;;44.93;;
8871;SDS011;4472;52.092;9.820;2022-12-01T02:26:54;107.33;;;46.23;;
8871;SDS011;4472;52.092;9.820;2022-12-01T02:33:00;107.03;;;45.17;;
8871;SDS011;4472;52.092;9.820;2022-12-01T02:35:54;106.17;;;44.60;;
8871;SDS011;4472;52.092;9.820;2022-12-01T02:38:47;115.07;;;46.47;;
8871;SDS011;4472;52.092;9.820;2022-12-01T02:41:41;110.40;;;45.43;;
8871;SDS011;4472;52.092;9.820;2022-12-01T02:44:34;112.67;;;43.30;;
8871;SDS011;4472;52.092;9.820;2022-12-01T02:47:25;106.20;;;42.93;;
8871;SDS011;4472;52.092;9.820;2022-12-01T02:50:14;103.00;;;42.67;;
8871;SDS011;4472;52.092;9.820;2022-12-01T02:53:02;108.33;;;44.00;;
8871;SDS011;4472;52.092;9.820;2022-12-01T02:55:52;112.10;;;44.00;;
8871;SDS011;4472;52.092;9.820;2022-12-01T02:58:41;110.67;;;44.20;;
8871;SDS011;4472;52.092;9.820;2022-12-01T03:01:35;99.80;;;41.47;;
8871;SDS011;4472;52.092;9.820;2022-12-01T03:04:37;106.17;;;44.30;;
8871;SDS011;4472;52.092;9.820;2022-12-01T03:07:41;104.47;;;42.43;;
8871;SDS011;4472;52.092;9.820;2022-12-01T03:10:37;108.70;;;41.70;;
8871;SDS011;4472;52.092;9.820;2022-12-01T03:13:36;95.30;;;39.70;;
8871;SDS011;4472;52.092;9.820;2022-12-01T03:16:29;94.67;;;38.27;;
8871;SDS011;4472;52.092;9.820;2022-12-01T03:19:26;86.80;;;37.97;;
8871;SDS011;4472;52.092;9.820;2022-12-01T03:22:20;92.00;;;37.63;;
8871;SDS011;4472;52.092;9.820;2022-12-01T03:25:13;93.33;;;39.03;;
8871;SDS011;4472;52.092;9.820;2022-12-01T03:28:02;95.70;;;39.60;;
8871;SDS011;4472;52.092;9.820;2022-12-01T03:30:51;91.40;;;38.60;;
8871;SDS011;4472;52.092;9.820;2022-12-01T03:33:44;98.63;;;39.97;;
8871;SDS011;4472;52.092;9.820;2022-12-01T03:36:36;99.17;;;39.17;;
8871;SDS011;4472;52.092;9.820;2022-12-01T03:39:29;98.10;;;38.93;;
8871;SDS011;4472;52.092;9.820;2022-12-01T03:42:21;100.70;;;39.30;;
8871;SDS011;4472;52.092;9.820;2022-12-01T03:45:13;96.70;;;40.87;;
8871;SDS011;4472;52.092;9.820;2022-12-01T03:48:03;113.10;;;40.80;;
8871;SDS011;4472;52.092;9.820;2022-12-01T03:50:52;105.97;;;42.17;;
8871;SDS011;4472;52.092;9.820;2022-12-01T03:53:50;101.77;;;39.47;;
8871;SDS011;4472;52.092;9.820;2022-12-01T03:56:46;100.33;;;39.97;;
8871;SDS011;4472;52.092;9.820;2022-12-01T03:59:38;101.10;;;40.43;;
8871;SDS011;4472;52.092;9.820;2022-12-01T04:02:27;106.20;;;41.63;;
8871;SDS011;4472;52.092;9.820;2022-12-01T04:05:14;103.10;;;40.10;;
8871;SDS011;4472;52.092;9.820;2022-12-01T04:08:02;103.27;;;40.37;;
8871;SDS011;4472;52.092;9.820;2022-12-01T04:10:49;103.83;;;41.87;;
8871;SDS011;4472;52.092;9.820;2022-12-01T04:13:36;93.00;;;38.67;;
8871;SDS011;4472;52.092;9.820;2022-12-01T04:16:23;95.90;;;39.50;;
8871;SDS011;4472;52.092;9.820;2022-12-01T04:19:11;101.20;;;40.67;;
8871;SDS011;4472;52.092;9.820;2022-12-01T04:21:58;96.27;;;38.87;;
8871;SDS011;4472;52.092;9.820;2022-12-01T04:24:45;99.57;;;39.47;;
8871;SDS011;4472;52.092;9.820;2022-12-01T04:27:33;98.67;;;39.20;;
8871;SDS011;4472;52.092;9.820;2022-12-01T04:30:21;98.67;;;40.70;;
8871;SDS011;4472;52.092;9.820;2022-12-01T04:33:09;98.00;;;40.07;;
8871;SDS011;4472;52.092;9.820;2022-12-01T04:35:57;97.17;;;39.27;;
8871;SDS011;4472;52.092;9.820;2022-12-01T04:38:45;94.43;;;37.77;;
8871;SDS011;4472;52.092;9.820;2022-12-01T04:41:32;100.37;;;38.10;;
8871;SDS011;4472;52.092;9.820;2022-12-01T04:44:19;98.50;;;38.27;;
8871;SDS011;4472;52.092;9.820;2022-12-01T04:47:06;95.93;;;39.70;;
8871;SDS011;4472;52.092;9.820;2022-12-01T04:49:55;100.37;;;40.37;;
8871;SDS011;4472;52.092;9.820;2022-12-01T04:52:42;100.67;;;38.30;;
8871;SDS011;4472;52.092;9.820;2022-12-01T04:55:30;112.40;;;41.20;;
8871;SDS011;4472;52.092;9.820;2022-12-01T04:58:22;106.67;;;39.90;;
8871;SDS011;4472;52.092;9.820;2022-12-01T05:01:11;114.60;;;41.87;;
8871;SDS011;4472;52.092;9.820;2022-12-01T05:03:59;107.50;;;40.07;;
8871;SDS011;4472;52.092;9.820;2022-12-01T05:06:48;111.93;;;41.23;;
8871;SDS011;4472;52.092;9.820;2022-12-01T05:09:35;107.33;;;41.23;;
8871;SDS011;4472;52.092;9.820;2022-12-01T05:12:23;112.00;;;42.03;;
8871;SDS011;4472;52.092;9.820;2022-12-01T05:15:10;113.03;;;40.37;;
8871;SDS011;4472;52.092;9.820;2022-12-01T05:17:58;101.90;;;39.43;;
8871;SDS011;4472;52.092;9.820;2022-12-01T05:20:45;99.93;;;38.33;;
8871;SDS011;4472;52.092;9.820;2022-12-01T05:23:45;91.37;;;36.90;;
8871;SDS011;4472;52.092;9.820;2022-12-01T05:26:33;98.07;;;37.47;;
8871;SDS011;4472;52.092;9.820;2022-12-01T05:29:20;94.53;;;37.10;;
8871;SDS011;4472;52.092;9.820;2022-12-01T05:32:07;105.57;;;37.27;;
8871;SDS011;4472;52.092;9.820;2022-12-01T05:34:54;101.03;;;37.73;;
8871;SDS011;4472;52.092;9.820;2022-12-01T05:37:42;101.33;;;38.70;;
8871;SDS011;4472;52.092;9.820;2022-12-01T05:40:30;101.63;;;38.30;;
8871;SDS011;4472;52.092;9.820;2022-12-01T05:43:18;99.63;;;37.07;;
8871;SDS011;4472;52.092;9.820;2022-12-01T05:46:05;94.17;;;36.63;;
8871;SDS011;4472;52.092;9.820;2022-12-01T05:48:52;94.07;;;36.43;;
8871;SDS011;4472;52.092;9.820;2022-12-01T05:51:41;96.63;;;38.37;;
8871;SDS011;4472;52.092;9.820;2022-12-01T05:54:28;93.47;;;36.17;;
8871;SDS011;4472;52.092;9.820;2022-12-01T05:57:17;96.70;;;36.77;;
8871;SDS011;4472;52.092;9.820;2022-12-01T06:00:04;98.63;;;38.23;;
8871;SDS011;4472;52.092;9.820;2022-12-01T06:02:52;99.83;;;37.67;;
8871;SDS011;4472;52.092;9.820;2022-12-01T06:05:40;103.20;;;38.73;;
8871;SDS011;4472;52.092;9.820;2022-12-01T06:08:27;91.87;;;35.87;;
8871;SDS011;4472;52.092;9.820;2022-12-01T06:11:14;92.73;;;34.47;;
8871;SDS011;4472;52.092;9.820;2022-12-01T06:14:03;87.33;;;36.13;;
8871;SDS011;4472;52.092;9.820;2022-12-01T06:16:50;86.13;;;36.57;;
8871;SDS011;4472;52.092;9.820;2022-12-01T06:19:37;91.17;;;35.80;;
8871;SDS011;4472;52.092;9.820;2022-12-01T06:22:24;88.70;;;36.60;;
8871;SDS011;4472;52.092;9.820;2022-12-01T06:25:12;94.00;;;37.53;;
8871;SDS011;4472;52.092;9.820;2022-12-01T06:27:59;106.93;;;38.10;;
8871;SDS011;4472;52.092;9.820;2022-12-01T06:30:48;90.40;;;36.07;;
8871;SDS011;4472;52.092;9.820;2022-12-01T06:33:35;93.43;;;36.97;;
8871;SDS011;4472;52.092;9.820;2022-12-01T06:36:22;85.77;;;36.30;;
8871;SDS011;4472;52.092;9.820;2022-12-01T06:39:09;88.17;;;37.93;;
8871;SDS011;4472;52.092;9.820;2022-12-01T06:41:56;83.97;;;34.80;;
8871;SDS011;4472;52.092;9.820;2022-12-01T06:44:44;95.03;;;37.13;;
8871;SDS011;4472;52.092;9.820;2022-12-01T06:47:32;92.60;;;37.93;;
8871;SDS011;4472;52.092;9.820;2022-12-01T06:50:20;86.87;;;36.53;;
8871;SDS011;4472;52.092;9.820;2022-12-01T06:53:07;90.47;;;36.27;;
8871;SDS011;4472;52.092;9.820;2022-12-01T06:55:58;95.83;;;37.87;;
8871;SDS011;4472;52.092;9.820;2022-12-01T06:58:45;88.00;;;35.90;;
8871;SDS011;4472;52.092;9.820;2022-12-01T07:01:32;101.43;;;38.73;;
8871;SDS011;4472;52.092;9.820;2022-12-01T07:04:21;92.73;;;35.63;;
8871;SDS011;4472;52.092;9.820;2022-12-01T07:07:08;84.20;;;35.13;;
8871;SDS011;4472;52.092;9.820;2022-12-01T07:09:56;90.10;;;35.97;;
8871;SDS011;4472;52.092;9.820;2022-12-01T07:12:43;94.83;;;36.93;;
8871;SDS011;4472;52.092;9.820;2022-12-01T07:15:30;94.90;;;37.10;;
8871;SDS011;4472;52.092;9.820;2022-12-01T07:18:18;96.67;;;36.47;;
8871;SDS011;4472;52.092;9.820;2022-12-01T07:21:07;100.87;;;38.20;;
8871;SDS011;4472;52.092;9.820;2022-12-01T07:23:57;96.03;;;35.90;;
8871;SDS011;4472;52.092;9.820;2022-12-01T07:26:44;94.27;;;37.40;;
8871;SDS011;4472;52.092;9.820;2022-12-01T07:29:32;101.97;;;36.93;;
8871;SDS011;4472;52.092;9.820;2022-12-01T07:32:20;100.37;;;37.70;;
8871;SDS011;4472;52.092;9.820;2022-12-01T07:35:07;94.53;;;36.40;;
8871;SDS011;4472;52.092;9.820;2022-12-01T07:37:56;94.70;;;36.23;;
8871;SDS011;4472;52.092;9.820;2022-12-01T07:40:43;100.97;;;37.07;;
8871;SDS011;4472;52.092;9.820;2022-12-01T07:43:30;98.40;;;38.07;;
8871;SDS011;4472;52.092;9.820;2022-12-01T07:46:18;102.63;;;37.07;;
8871;SDS011;4472;52.092;9.820;2022-12-01T07:49:07;105.10;;;38.80;;
8871;SDS011;4472;52.092;9.820;2022-12-01T07:51:56;107.87;;;38.30;;
8871;SDS011;4472;52.092;9.820;2022-12-01T07:54:44;110.83;;;39.50;;
8871;SDS011;4472;52.092;9.820;2022-12-01T07:57:31;108.97;;;40.50;;
8871;SDS011;4472;52.092;9.820;2022-12-01T08:00:19;104.73;;;39.43;;
8871;SDS011;4472;52.092;9.820;2022-12-01T08:03:06;116.37;;;41.67;;
8871;SDS011;4472;52.092;9.820;2022-12-01T08:05:57;110.20;;;40.27;;
8871;SDS011;4472;52.092;9.820;2022-12-01T08:08:44;107.50;;;40.17;;
8871;SDS011;4472;52.092;9.820;2022-12-01T08:11:33;108.90;;;40.50;;
8871;SDS011;4472;52.092;9.820;2022-12-01T08:14:21;114.37;;;41.90;;
8871;SDS011;4472;52.092;9.820;2022-12-01T08:17:08;111.83;;;41.50;;
8871;SDS011;4472;52.092;9.820;2022-12-01T08:19:55;112.97;;;40.83;;
8871;SDS011;4472;52.092;9.820;2022-12-01T08:22:42;107.20;;;41.03;;
8871;SDS011;4472;52.092;9.820;2022-12-01T08:25:29;115.70;;;41.70;;
8871;SDS011;4472;52.092;9.820;2022-12-01T08:28:19;113.20;;;40.43;;
8871;SDS011;4472;52.092;9.820;2022-12-01T08:31:07;105.33;;;39.97;;
8871;SDS011;4472;52.092;9.820;2022-12-01T08:33:56;107.47;;;39.93;;
8871;SDS011;4472;52.092;9.820;2022-12-01T08:36:43;105.83;;;38.37;;
8871;SDS011;4472;52.092;9.820;2022-12-01T08:39:30;112.43;;;39.67;;
8871;SDS011;4472;52.092;9.820;2022-12-01T08:42:17;96.43;;;36.30;;
8871;SDS011;4472;52.092;9.820;2022-12-01T08:45:07;93.97;;;35.53;;
8871;SDS011;4472;52.092;9.820;2022-12-01T08:47:55;98.50;;;35.83;;
8871;SDS011;4472;52.092;9.820;2022-12-01T08:50:43;100.27;;;35.33;;
8871;SDS011;4472;52.092;9.820;2022-12-01T08:53:30;88.43;;;34.77;;
8871;SDS011;4472;52.092;9.820;2022-12-01T08:56:19;88.73;;;33.47;;
8871;SDS011;4472;52.092;9.820;2022-12-01T08:59:08;90.60;;;33.53;;
8871;SDS011;4472;52.092;9.820;2022-12-01T09:01:57;93.13;;;33.87;;
8871;SDS011;4472;52.092;9.820;2022-12-01T09:04:44;90.57;;;34.60;;
8871;SDS011;4472;52.092;9.820;2022-12-01T09:07:31;90.73;;;33.63;;
8871;SDS011;4472;52.092;9.820;2022-12-01T09:10:18;101.00;;;35.90;;
8871;SDS011;4472;52.092;9.820;2022-12-01T09:13:06;93.57;;;35.53;;
8871;SDS011;4472;52.092;9.820;2022-12-01T09:15:53;103.27;;;36.63;;
8871;SDS011;4472;52.092;9.820;2022-12-01T09:18:43;96.83;;;35.67;;
8871;SDS011;4472;52.092;9.820;2022-12-01T09:21:32;98.10;;;35.57;;
8871;SDS011;4472;52.092;9.820;2022-12-01T09:24:21;112.17;;;36.73;;
8871;SDS011;4472;52.092;9.820;2022-12-01T09:27:08;100.90;;;35.40;;
8871;SDS011;4472;52.092;9.820;2022-12-01T09:29:56;98.70;;;36.43;;
8871;SDS011;4472;52.092;9.820;2022-12-01T09:32:43;99.93;;;36.33;;
8871;SDS011;4472;52.092;9.820;2022-12-01T09:35:31;101.77;;;35.53;;
8871;SDS011;4472;52.092;9.820;2022-12-01T09:38:19;99.03;;;36.00;;
8871;SDS011;4472;52.092;9.820;2022-12-01T09:41:06;103.60;;;36.37;;
8871;SDS011;4472;52.092;9.820;2022-12-01T09:44:00;98.77;;;35.70;;
8871;SDS011;4472;52.092;9.820;2022-12-01T09:46:56;115.83;;;37.27;;
8871;SDS011;4472;52.092;9.820;2022-12-01T09:49:52;96.87;;;34.10;;
8871;SDS011;4472;52.092;9.820;2022-12-01T09:52:46;103.70;;;35.77;;
8871;SDS011;4472;52.092;9.820;2022-12-01T09:55:36;103.00;;;36.97;;
8871;SDS011;4472;52.092;9.820;2022-12-01T09:58:26;110.23;;;38.23;;
8871;SDS011;4472;52.092;9.820;2022-12-01T10:01:16;92.20;;;34.10;;
8871;SDS011;4472;52.092;9.820;2022-12-01T10:04:07;85.83;;;31.37;;
8871;SDS011;4472;52.092;9.820;2022-12-01T10:06:59;93.90;;;33.73;;
8871;SDS011;4472;52.092;9.820;2022-12-01T10:09:53;98.07;;;33.80;;
8871;SDS011;4472;52.092;9.820;2022-12-01T10:12:42;98.80;;;33.03;;
8871;SDS011;4472;52.092;9.820;2022-12-01T10:15:34;91.43;;;33.93;;
8871;SDS011;4472;52.092;9.820;2022-12-01T10:18:31;88.97;;;32.67;;
8871;SDS011;4472;52.092;9.820;2022-12-01T10:21:29;82.53;;;31.67;;
8871;SDS011;4472;52.092;9.820;2022-12-01T10:24:28;91.37;;;33.53;;
8871;SDS011;4472;52.092;9.820;2022-12-01T10:27:27;87.63;;;33.43;;
8871;SDS011;4472;52.092;9.820;2022-12-01T10:30:25;93.30;;;33.23;;
8871;SDS011;4472;52.092;9.820;2022-12-01T10:33:13;91.87;;;33.67;;
8871;SDS011;4472;52.092;9.820;2022-12-01T10:36:07;82.87;;;31.13;;
8871;SDS011;4472;52.092;9.820;2022-12-01T10:38:56;82.33;;;32.03;;
8871;SDS011;4472;52.092;9.820;2022-12-01T10:41:43;88.07;;;31.63;;
8871;SDS011;4472;52.092;9.820;2022-12-01T10:44:34;87.13;;;32.30;;
8871;SDS011;4472;52.092;9.820;2022-12-01T10:47:22;90.63;;;33.07;;
8871;SDS011;4472;52.092;9.820;2022-12-01T10:50:12;91.63;;;33.20;;
8871;SDS011;4472;52.092;9.820;2022-12-01T10:53:26;85.60;;;32.83;;
8871;SDS011;4472;52.092;9.820;2022-12-01T10:56:15;92.80;;;32.27;;
8871;SDS011;4472;52.092;9.820;2022-12-01T10:59:04;97.97;;;33.07;;
8871;SDS011;4472;52.092;9.820;2022-12-01T11:02:19;103.33;;;33.23;;
8871;SDS011;4472;52.092;9.820;2022-12-01T11:05:17;91.00;;;32.83;;
8871;SDS011;4472;52.092;9.820;2022-12-01T11:08:17;79.07;;;30.57;;
8871;SDS011;4472;52.092;9.820;2022-12-01T11:11:20;81.67;;;31.10;;
8871;SDS011;4472;52.092;9.820;2022-12-01T11:14:15;79.37;;;30.73;;
8871;SDS011;4472;52.092;9.820;2022-12-01T11:20:24;81.60;;;32.03;;
8871;SDS011;4472;52.092;9.820;2022-12-01T11:23:21;84.47;;;31.30;;
8871;SDS011;4472;52.092;9.820;2022-12-01T11:26:11;82.13;;;30.53;;
8871;SDS011;4472;52.092;9.820;2022-12-01T11:29:01;83.53;;;30.63;;
8871;SDS011;4472;52.092;9.820;2022-12-01T11:31:50;76.80;;;28.57;;
8871;SDS011;4472;52.092;9.820;2022-12-01T11:34:39;84.23;;;30.17;;
8871;SDS011;4472;52.092;9.820;2022-12-01T11:37:27;77.60;;;30.20;;
8871;SDS011;4472;52.092;9.820;2022-12-01T11:40:19;91.87;;;32.60;;
8871;SDS011;4472;52.092;9.820;2022-12-01T11:43:13;77.23;;;29.77;;
8871;SDS011;4472;52.092;9.820;2022-12-01T11:46:08;80.17;;;30.50;;
8871;SDS011;4472;52.092;9.820;2022-12-01T11:48:56;78.37;;;28.87;;
8871;SDS011;4472;52.092;9.820;2022-12-01T11:51:46;75.33;;;30.03;;
8871;SDS011;4472;52.092;9.820;2022-12-01T11:54:33;79.20;;;30.83;;
8871;SDS011;4472;52.092;9.820;2022-12-01T11:57:20;82.13;;;31.53;;
8871;SDS011;4472;52.092;9.820;2022-12-01T12:00:11;84.80;;;31.27;;
8871;SDS011;4472;52.092;9.820;2022-12-01T12:03:04;86.77;;;31.10;;
8871;SDS011;4472;52.092;9.820;2022-12-01T12:06:12;82.80;;;31.63;;
8871;SDS011;4472;52.092;9.820;2022-12-01T12:09:10;84.40;;;32.33;;
8871;SDS011;4472;52.092;9.820;2022-12-01T12:12:15;83.37;;;31.57;;
8871;SDS011;4472;52.092;9.820;2022-12-01T12:15:15;78.47;;;30.50;;
8871;SDS011;4472;52.092;9.820;2022-12-01T12:18:16;85.43;;;31.97;;
8871;SDS011;4472;52.092;9.820;2022-12-01T12:21:16;93.83;;;31.07;;
8871;SDS011;4472;52.092;9.820;2022-12-01T12:24:27;81.57;;;30.43;;
8871;SDS011;4472;52.092;9.820;2022-12-01T12:27:24;88.03;;;30.77;;
8871;SDS011;4472;52.092;9.820;2022-12-01T12:30:19;77.90;;;29.90;;
8871;SDS011;4472;52.092;9.820;2022-12-01T12:33:20;84.57;;;30.90;;
8871;SDS011;4472;52.092;9.820;2022-12-01T12:36:28;89.83;;;32.50;;
8871;SDS011;4472;52.092;9.820;2022-12-01T12:39:34;79.93;;;32.17;;
8871;SDS011;4472;52.092;9.820;2022-12-01T12:42:36;74.43;;;29.70;;
8871;SDS011;4472;52.092;9.820;2022-12-01T12:45:30;88.63;;;31.80;;
8871;SDS011;4472;52.092;9.820;2022-12-01T12:48:31;77.63;;;30.13;;
8871;SDS011;4472;52.092;9.820;2022-12-01T12:51:31;80.30;;;29.90;;
8871;SDS011;4472;52.092;9.820;2022-12-01T12:54:23;79.17;;;31.27;;
8871;SDS011;4472;52.092;9.820;2022-12-01T12:57:18;83.57;;;31.40;;
8871;SDS011;4472;52.092;9.820;2022-12-01T13:00:12;82.00;;;31.97;;
8871;SDS011;4472;52.092;9.820;2022-12-01T13:03:03;86.37;;;32.80;;
8871;SDS011;4472;52.092;9.820;2022-12-01T13:06:01;91.17;;;33.30;;
8871;SDS011;4472;52.092;9.820;2022-12-01T13:08:52;80.53;;;30.53;;
8871;SDS011;4472;52.092;9.820;2022-12-01T13:11:43;90.43;;;32.23;;
8871;SDS011;4472;52.092;9.820;2022-12-01T13:14:38;85.57;;;31.93;;
8871;SDS011;4472;52.092;9.820;2022-12-01T13:17:29;77.33;;;30.47;;
8871;SDS011;4472;52.092;9.820;2022-12-01T13:20:22;78.33;;;30.20;;
8871;SDS011;4472;52.092;9.820;2022-12-01T13:23:13;84.30;;;31.60;;
8871;SDS011;4472;52.092;9.820;2022-12-01T13:26:03;92.03;;;32.43;;
8871;SDS011;4472;52.092;9.820;2022-12-01T13:28:54;87.33;;;32.57;;
8871;SDS011;4472;52.092;9.820;2022-12-01T13:31:45;92.60;;;32.73;;
8871;SDS011;4472;52.092;9.820;2022-12-01T13:34:35;88.97;;;32.90;;
8871;SDS011;4472;52.092;9.820;2022-12-01T13:37:25;91.07;;;32.33;;
8871;SDS011;4472;52.092;9.820;2022-12-01T13:40:19;80.17;;;30.53;;
8871;SDS011;4472;52.092;9.820;2022-12-01T13:43:13;95.50;;;32.70;;
8871;SDS011;4472;52.092;9.820;2022-12-01T13:46:04;88.17;;;30.63;;
8871;SDS011;4472;52.092;9.820;2022-12-01T13:52:28;86.90;;;31.63;;
8871;SDS011;4472;52.092;9.820;2022-12-01T13:55:27;84.00;;;30.33;;
8871;SDS011;4472;52.092;9.820;2022-12-01T13:58:22;85.13;;;32.27;;
8871;SDS011;4472;52.092;9.820;2022-12-01T14:04:42;88.27;;;32.00;;
8871;SDS011;4472;52.092;9.820;2022-12-01T14:07:33;88.97;;;33.20;;
8871;SDS011;4472;52.092;9.820;2022-12-01T14:10:25;84.27;;;31.57;;
8871;SDS011;4472;52.092;9.820;2022-12-01T14:13:16;91.90;;;33.07;;
8871;SDS011;4472;52.092;9.820;2022-12-01T14:16:05;80.33;;;31.33;;
8871;SDS011;4472;52.092;9.820;2022-12-01T14:18:55;81.97;;;30.23;;
8871;SDS011;4472;52.092;9.820;2022-12-01T14:21:46;88.63;;;30.73;;
8871;SDS011;4472;52.092;9.820;2022-12-01T14:24:34;75.97;;;31.87;;
8871;SDS011;4472;52.092;9.820;2022-12-01T14:27:35;74.77;;;29.90;;
8871;SDS011;4472;52.092;9.820;2022-12-01T14:34:00;73.10;;;30.73;;
8871;SDS011;4472;52.092;9.820;2022-12-01T14:36:50;71.60;;;29.63;;
8871;SDS011;4472;52.092;9.820;2022-12-01T14:39:40;76.30;;;30.03;;
8871;SDS011;4472;52.092;9.820;2022-12-01T14:42:32;83.17;;;28.87;;
8871;SDS011;4472;52.092;9.820;2022-12-01T14:45:37;79.37;;;31.27;;
8871;SDS011;4472;52.092;9.820;2022-12-01T14:48:30;82.73;;;33.03;;
8871;SDS011;4472;52.092;9.820;2022-12-01T14:51:22;85.60;;;34.70;;
8871;SDS011;4472;52.092;9.820;2022-12-01T14:54:15;67.93;;;29.27;;
8871;SDS011;4472;52.092;9.820;2022-12-01T14:57:07;71.07;;;29.23;;
8871;SDS011;4472;52.092;9.820;2022-12-01T15:00:03;79.33;;;32.13;;
8871;SDS011;4472;52.092;9.820;2022-12-01T15:02:52;73.90;;;30.07;;
8871;SDS011;4472;52.092;9.820;2022-12-01T15:05:41;79.67;;;30.67;;
8871;SDS011;4472;52.092;9.820;2022-12-01T15:08:30;78.60;;;29.67;;
8871;SDS011;4472;52.092;9.820;2022-12-01T15:11:20;75.50;;;29.63;;
8871;SDS011;4472;52.092;9.820;2022-12-01T15:14:23;80.70;;;32.77;;
8871;SDS011;4472;52.092;9.820;2022-12-01T15:17:26;76.87;;;29.90;;
8871;SDS011;4472;52.092;9.820;2022-12-01T15:20:28;77.53;;;31.07;;
8871;SDS011;4472;52.092;9.820;2022-12-01T15:23:17;83.30;;;33.17;;
8871;SDS011;4472;52.092;9.820;2022-12-01T15:26:04;79.90;;;31.73;;
8871;SDS011;4472;52.092;9.820;2022-12-01T15:29:11;83.77;;;31.07;;
8871;SDS011;4472;52.092;9.820;2022-12-01T15:32:01;93.30;;;34.23;;
8871;SDS011;4472;52.092;9.820;2022-12-01T15:34:52;86.77;;;33.13;;
8871;SDS011;4472;52.092;9.820;2022-12-01T15:37:41;81.07;;;29.40;;
8871;SDS011;4472;52.092;9.820;2022-12-01T15:40:30;102.73;;;35.77;;
8871;SDS011;4472;52.092;9.820;2022-12-01T15:43:18;135.10;;;53.90;;
8871;SDS011;4472;52.092;9.820;2022-12-01T15:46:14;88.20;;;32.70;;
8871;SDS011;4472;52.092;9.820;2022-12-01T15:49:05;91.60;;;36.37;;
8871;SDS011;4472;52.092;9.820;2022-12-01T15:51:54;94.10;;;34.30;;
8871;SDS011;4472;52.092;9.820;2022-12-01T15:54:51;95.60;;;32.73;;
8871;SDS011;4472;52.092;9.820;2022-12-01T15:57:38;95.67;;;34.03;;
8871;SDS011;4472;52.092;9.820;2022-12-01T16:00:26;94.67;;;32.13;;
8871;SDS011;4472;52.092;9.820;2022-12-01T16:03:14;93.47;;;31.30;;
8871;SDS011;4472;52.092;9.820;2022-12-01T16:06:02;93.83;;;33.37;;
8871;SDS011;4472;52.092;9.820;2022-12-01T16:08:53;106.53;;;34.93;;
8871;SDS011;4472;52.092;9.820;2022-12-01T16:14:54;104.30;;;34.60;;
8871;SDS011;4472;52.092;9.820;2022-12-01T16:17:51;110.03;;;36.43;;
8871;SDS011;4472;52.092;9.820;2022-12-01T16:20:42;103.20;;;36.10;;
8871;SDS011;4472;52.092;9.820;2022-12-01T16:23:32;100.40;;;35.27;;
8871;SDS011;4472;52.092;9.820;2022-12-01T16:26:20;99.03;;;32.50;;
8871;SDS011;4472;52.092;9.820;2022-12-01T16:29:12;107.03;;;34.00;;
8871;SDS011;4472;52.092;9.820;2022-12-01T16:32:09;109.90;;;33.70;;
8871;SDS011;4472;52.092;9.820;2022-12-01T16:35:02;113.27;;;35.30;;
8871;SDS011;4472;52.092;9.820;2022-12-01T16:37:51;106.43;;;34.73;;
8871;SDS011;4472;52.092;9.820;2022-12-01T16:40:39;101.67;;;33.80;;
8871;SDS011;4472;52.092;9.820;2022-12-01T16:43:27;119.60;;;35.37;;
8871;SDS011;4472;52.092;9.820;2022-12-01T16:46:15;109.80;;;35.20;;
8871;SDS011;4472;52.092;9.820;2022-12-01T16:49:02;112.30;;;33.13;;
8871;SDS011;4472;52.092;9.820;2022-12-01T16:51:50;116.83;;;34.23;;
8871;SDS011;4472;52.092;9.820;2022-12-01T16:54:38;117.00;;;34.03;;
8871;SDS011;4472;52.092;9.820;2022-12-01T16:57:25;100.30;;;34.77;;
8871;SDS011;4472;52.092;9.820;2022-12-01T17:00:13;115.07;;;34.93;;
8871;SDS011;4472;52.092;9.820;2022-12-01T17:03:01;123.20;;;37.87;;
8871;SDS011;4472;52.092;9.820;2022-12-01T17:05:49;131.73;;;38.00;;
8871;SDS011;4472;52.092;9.820;2022-12-01T17:08:40;120.67;;;36.67;;
8871;SDS011;4472;52.092;9.820;2022-12-01T17:11:28;130.10;;;37.13;;
8871;SDS011;4472;52.092;9.820;2022-12-01T17:14:15;120.20;;;35.40;;
8871;SDS011;4472;52.092;9.820;2022-12-01T17:17:02;128.77;;;37.13;;
8871;SDS011;4472;52.092;9.820;2022-12-01T17:19:50;129.47;;;35.73;;
8871;SDS011;4472;52.092;9.820;2022-12-01T17:22:37;132.03;;;35.07;;
8871;SDS011;4472;52.092;9.820;2022-12-01T17:25:24;126.30;;;35.80;;
8871;SDS011;4472;52.092;9.820;2022-12-01T17:28:14;129.47;;;36.93;;